createdAt,value
2019-03-15T00:00:38.531Z,75.84
2019-03-15T00:01:38.520Z,75.97
2019-03-15T00:02:38.515Z,76.07
2019-03-15T00:03:38.540Z,76.70
2019-03-15T00:04:39.996Z,76.49
2019-03-15T00:05:38.480Z,75.67
2019-03-15T00:06:38.470Z,75.94
2019-03-15T00:07:38.457Z,76.28
2019-03-15T00:08:38.489Z,75.67
2019-03-15T00:09:38.433Z,75.63
2019-03-15T00:10:39.220Z,75.73
2019-03-15T00:11:38.415Z,75.94
2019-03-15T00:12:38.401Z,74.70
2019-03-15T00:13:38.613Z,76.45
2019-03-15T00:14:38.380Z,74.91
2019-03-15T00:15:38.370Z,75.32
2019-03-15T00:16:38.404Z,75.73
2019-03-15T00:17:38.350Z,75.63
2019-03-15T00:18:38.335Z,74.60
2019-03-15T00:19:38.327Z,76.04
2019-03-15T00:20:38.317Z,75.01
2019-03-15T00:21:38.304Z,74.91
2019-03-15T00:22:38.373Z,74.19
2019-03-15T00:23:38.284Z,74.50
2019-03-15T00:24:38.270Z,74.50
2019-03-15T00:25:38.263Z,74.57
2019-03-15T00:26:38.255Z,73.95
2019-03-15T00:27:38.238Z,74.57
2019-03-15T00:28:38.268Z,74.57
2019-03-15T00:29:38.218Z,73.74
2019-03-15T00:30:38.210Z,73.95
2019-03-15T00:31:38.199Z,74.15
2019-03-15T00:32:38.227Z,74.57
2019-03-15T00:33:38.175Z,74.15
2019-03-15T00:34:38.203Z,73.54
2019-03-15T00:35:38.154Z,74.05
2019-03-15T00:36:38.185Z,73.71
2019-03-15T00:37:38.132Z,74.05
2019-03-15T00:38:38.121Z,74.15
2019-03-15T00:39:38.110Z,73.74
2019-03-15T00:40:38.137Z,74.26
2019-03-15T00:41:38.087Z,72.99
2019-03-15T00:42:38.077Z,73.81
2019-03-15T00:43:38.067Z,73.91
2019-03-15T00:44:38.055Z,73.61
2019-03-15T00:45:38.052Z,73.64
2019-03-15T00:46:38.072Z,73.81
2019-03-15T00:47:38.025Z,74.22
2019-03-15T00:48:38.019Z,73.81
2019-03-15T00:49:38.040Z,73.61
2019-03-15T00:50:38.032Z,73.81
2019-03-15T00:51:38.022Z,73.81
2019-03-15T00:52:37.976Z,73.19
2019-03-15T00:53:37.963Z,73.71
2019-03-15T00:54:37.945Z,73.81
2019-03-15T00:55:37.941Z,73.09
2019-03-15T00:56:37.928Z,73.09
2019-03-15T00:57:37.957Z,73.91
2019-03-15T00:58:37.904Z,74.22
2019-03-15T00:59:37.892Z,73.91
2019-03-15T01:00:37.886Z,73.40
2019-03-15T01:01:37.873Z,73.91
2019-03-15T01:02:37.900Z,73.61
2019-03-15T01:03:37.851Z,74.12
2019-03-15T01:04:37.841Z,73.61
2019-03-15T01:05:37.842Z,73.50
2019-03-15T01:06:37.819Z,73.91
2019-03-15T01:07:37.810Z,73.30
2019-03-15T01:08:37.840Z,73.91
2019-03-15T01:09:37.793Z,73.61
2019-03-15T01:10:37.775Z,74.12
2019-03-15T01:11:37.763Z,74.12
2019-03-15T01:12:37.752Z,74.05
2019-03-15T01:13:37.744Z,73.91
2019-03-15T01:14:37.773Z,73.91
2019-03-15T01:15:37.723Z,73.81
2019-03-15T01:16:37.751Z,73.61
2019-03-15T01:17:37.739Z,73.61
2019-03-15T01:18:37.696Z,74.02
2019-03-15T01:19:37.677Z,74.12
2019-03-15T01:20:37.664Z,74.12
2019-03-15T01:21:37.694Z,75.04
2019-03-15T01:22:37.651Z,74.12
2019-03-15T01:23:37.633Z,73.91
2019-03-15T01:24:37.673Z,74.57
2019-03-15T01:25:37.614Z,74.74
2019-03-15T01:26:37.603Z,74.87
2019-03-15T01:27:37.643Z,74.84
2019-03-15T01:28:37.579Z,73.61
2019-03-15T01:29:37.570Z,74.63
2019-03-15T01:30:37.570Z,74.53
2019-03-15T01:31:37.552Z,73.61
2019-03-15T01:32:37.534Z,73.61
2019-03-15T01:33:37.567Z,74.63
2019-03-15T01:34:37.516Z,73.91
2019-03-15T01:35:37.545Z,74.02
2019-03-15T01:36:37.498Z,74.02
2019-03-15T01:37:37.484Z,74.12
2019-03-15T01:38:37.472Z,74.12
2019-03-15T01:39:37.461Z,73.71
2019-03-15T01:40:37.447Z,73.61
2019-03-15T01:41:37.480Z,73.91
2019-03-15T01:42:37.428Z,72.99
2019-03-15T01:43:38.470Z,72.99
2019-03-15T01:44:37.411Z,74.12
2019-03-15T01:45:37.441Z,72.99
2019-03-15T01:46:37.385Z,74.12
2019-03-15T01:47:37.375Z,73.16
2019-03-15T01:48:37.404Z,72.99
2019-03-15T01:49:37.354Z,73.78
2019-03-15T01:50:37.339Z,73.81
2019-03-15T01:51:37.331Z,73.78
2019-03-15T01:52:37.319Z,72.44
2019-03-15T01:53:37.353Z,72.44
2019-03-15T01:54:37.339Z,72.34
2019-03-15T01:55:37.286Z,72.24
2019-03-15T01:56:37.374Z,73.40
2019-03-15T01:57:37.328Z,72.65
2019-03-15T01:58:37.254Z,72.85
2019-03-15T01:59:37.283Z,73.47
2019-03-15T02:00:37.239Z,72.24
2019-03-15T02:01:37.223Z,72.24
2019-03-15T02:02:37.209Z,71.41
2019-03-15T02:03:37.202Z,71.21
2019-03-15T02:04:37.238Z,72.13
2019-03-15T02:05:37.184Z,71.34
2019-03-15T02:06:37.168Z,72.34
2019-03-15T02:07:37.158Z,71.93
2019-03-15T02:08:37.145Z,72.85
2019-03-15T02:09:37.178Z,72.65
2019-03-15T02:10:37.580Z,72.47
2019-03-15T02:11:37.116Z,72.58
2019-03-15T02:12:37.136Z,72.27
2019-03-15T02:13:37.096Z,71.93
2019-03-15T02:14:37.125Z,72.13
2019-03-15T02:15:37.070Z,71.34
2019-03-15T02:16:37.059Z,71.51
2019-03-15T02:17:37.053Z,72.03
2019-03-15T02:18:37.041Z,71.83
2019-03-15T02:19:37.026Z,72.06
2019-03-15T02:20:37.059Z,71.66
2019-03-15T02:21:37.024Z,72.03
2019-03-15T02:22:36.995Z,72.47
2019-03-15T02:23:37.025Z,72.38
2019-03-15T02:24:36.971Z,71.86
2019-03-15T02:25:37.006Z,71.75
2019-03-15T02:26:36.952Z,71.86
2019-03-15T02:27:36.983Z,72.17
2019-03-15T02:28:36.928Z,72.51
2019-03-15T02:29:36.920Z,71.66
2019-03-15T02:30:36.908Z,72.06
2019-03-15T02:31:36.950Z,72.06
2019-03-15T02:32:36.890Z,73.09
2019-03-15T02:33:36.875Z,71.96
2019-03-15T02:34:36.871Z,72.27
2019-03-15T02:35:36.857Z,72.27
2019-03-15T02:36:36.854Z,72.30
2019-03-15T02:37:36.885Z,72.38
2019-03-15T02:38:36.827Z,73.33
2019-03-15T02:39:36.813Z,72.92
2019-03-15T02:40:36.841Z,73.74
2019-03-15T02:41:36.788Z,72.81
2019-03-15T02:42:36.780Z,72.81
2019-03-15T02:43:36.766Z,73.23
2019-03-15T02:44:36.757Z,73.13
2019-03-15T02:45:36.748Z,73.16
2019-03-15T02:46:36.787Z,74.19
2019-03-15T02:47:36.724Z,74.40
2019-03-15T02:48:36.712Z,73.26
2019-03-15T02:49:36.744Z,73.68
2019-03-15T02:50:36.692Z,72.03
2019-03-15T02:51:36.682Z,72.61
2019-03-15T02:52:36.672Z,73.13
2019-03-15T02:53:36.703Z,73.23
2019-03-15T02:54:36.654Z,73.33
2019-03-15T02:55:36.680Z,73.88
2019-03-15T02:56:36.631Z,74.05
2019-03-15T02:57:36.617Z,72.81
2019-03-15T02:58:36.619Z,71.96
2019-03-15T02:59:36.596Z,71.86
2019-03-15T03:00:36.581Z,70.73
2019-03-15T03:01:36.614Z,71.66
2019-03-15T03:02:36.564Z,72.30
2019-03-15T03:03:36.562Z,72.61
2019-03-15T03:04:36.536Z,71.48
2019-03-15T03:05:36.568Z,72.41
2019-03-15T03:06:36.521Z,72.41
2019-03-15T03:07:36.504Z,71.89
2019-03-15T03:08:36.494Z,72.41
2019-03-15T03:09:36.523Z,72.20
2019-03-15T03:10:36.472Z,72.17
2019-03-15T03:11:36.461Z,70.62
2019-03-15T03:12:36.504Z,72.17
2019-03-15T03:13:37.241Z,71.75
2019-03-15T03:14:36.431Z,72.27
2019-03-15T03:15:36.418Z,70.42
2019-03-15T03:16:36.414Z,70.83
2019-03-15T03:17:36.399Z,72.38
2019-03-15T03:18:36.447Z,72.17
2019-03-15T03:19:36.378Z,71.45
2019-03-15T03:20:36.398Z,71.28
2019-03-15T03:21:36.356Z,71.96
2019-03-15T03:22:36.671Z,72.17
2019-03-15T03:23:36.334Z,72.17
2019-03-15T03:24:36.323Z,70.62
2019-03-15T03:25:36.316Z,71.21
2019-03-15T03:26:36.304Z,71.00
2019-03-15T03:27:36.292Z,70.49
2019-03-15T03:28:36.326Z,71.34
2019-03-15T03:29:36.270Z,70.94
2019-03-15T03:30:36.259Z,71.75
2019-03-15T03:31:36.277Z,71.41
2019-03-15T03:32:36.245Z,71.96
2019-03-15T03:33:36.226Z,71.11
2019-03-15T03:34:36.279Z,70.94
2019-03-15T03:35:36.207Z,71.14
2019-03-15T03:36:36.195Z,72.17
2019-03-15T03:37:36.227Z,72.38
2019-03-15T03:38:36.169Z,71.24
2019-03-15T03:39:36.166Z,69.49
2019-03-15T03:40:36.231Z,71.83
2019-03-15T03:41:36.180Z,71.83
2019-03-15T03:42:36.133Z,70.70
2019-03-15T03:43:36.118Z,70.52
2019-03-15T03:44:36.132Z,72.38
2019-03-15T03:45:36.098Z,72.13
2019-03-15T03:46:36.094Z,71.72
2019-03-15T03:47:36.133Z,71.79
2019-03-15T03:48:36.080Z,70.66
2019-03-15T03:49:36.057Z,70.66
2019-03-15T03:50:36.043Z,71.00
2019-03-15T03:51:36.074Z,71.83
2019-03-15T03:52:36.050Z,71.21
2019-03-15T03:53:36.010Z,72.34
2019-03-15T03:54:36.000Z,71.62
2019-03-15T03:55:35.991Z,71.51
2019-03-15T03:56:36.017Z,72.47
2019-03-15T03:57:36.525Z,72.38
2019-03-15T03:58:35.951Z,72.17
2019-03-15T03:59:35.943Z,72.24
2019-03-15T04:00:35.971Z,71.72
2019-03-15T04:01:35.964Z,72.44
2019-03-15T04:02:35.909Z,71.93
2019-03-15T04:03:35.900Z,71.41
2019-03-15T04:04:35.891Z,72.10
2019-03-15T04:05:35.883Z,71.59
2019-03-15T04:06:35.924Z,70.76
2019-03-15T04:07:35.865Z,72.10
2019-03-15T04:08:35.903Z,71.89
2019-03-15T04:09:35.834Z,71.89
2019-03-15T04:10:35.824Z,71.08
2019-03-15T04:11:35.825Z,72.10
2019-03-15T04:12:35.974Z,72.17
2019-03-15T04:13:35.789Z,71.04
2019-03-15T04:14:35.779Z,70.63
2019-03-15T04:15:35.808Z,70.66
2019-03-15T04:16:35.756Z,71.69
2019-03-15T04:17:35.749Z,72.13
2019-03-15T04:18:35.740Z,71.93
2019-03-15T04:19:35.727Z,72.34
2019-03-15T04:20:35.714Z,72.24
2019-03-15T04:21:35.746Z,72.44
2019-03-15T04:22:35.697Z,72.82
2019-03-15T04:23:38.287Z,72.51
2019-03-15T04:24:35.672Z,73.02
2019-03-15T04:25:35.701Z,72.20
2019-03-15T04:26:35.655Z,72.51
2019-03-15T04:27:35.642Z,73.85
2019-03-15T04:28:35.632Z,73.27
2019-03-15T04:29:35.616Z,73.68
2019-03-15T04:30:35.646Z,73.68
2019-03-15T04:31:35.599Z,74.19
2019-03-15T04:32:35.622Z,74.43
2019-03-15T04:33:35.570Z,75.04
2019-03-15T04:34:35.560Z,74.33
2019-03-15T04:35:35.555Z,74.80
2019-03-15T04:36:35.541Z,74.80
2019-03-15T04:37:35.568Z,74.60
2019-03-15T04:38:35.520Z,74.08
2019-03-15T04:39:35.547Z,74.91
2019-03-15T04:40:35.497Z,74.40
2019-03-15T04:41:35.486Z,74.50
2019-03-15T04:42:35.495Z,75.01
2019-03-15T04:43:35.533Z,74.19
2019-03-15T04:44:35.498Z,74.80
2019-03-15T04:45:35.489Z,75.12
2019-03-15T04:46:35.436Z,74.60
2019-03-15T04:47:35.463Z,75.73
2019-03-15T04:48:35.408Z,75.97
2019-03-15T04:49:35.398Z,75.67
2019-03-15T04:50:35.387Z,76.18
2019-03-15T04:51:35.382Z,76.14
2019-03-15T04:52:35.365Z,75.73
2019-03-15T04:53:35.395Z,75.80
2019-03-15T04:54:35.344Z,75.70
2019-03-15T04:55:35.333Z,75.73
2019-03-15T04:56:35.322Z,75.63
2019-03-15T04:57:35.316Z,75.59
2019-03-15T04:58:35.301Z,75.38
2019-03-15T04:59:35.334Z,75.90
2019-03-15T05:00:35.284Z,75.63
2019-03-15T05:01:35.265Z,76.35
2019-03-15T05:02:35.257Z,76.04
2019-03-15T05:03:35.285Z,76.10
2019-03-15T05:04:35.235Z,75.73
2019-03-15T05:05:35.224Z,76.55
2019-03-15T05:06:35.214Z,75.93
2019-03-15T05:07:35.203Z,76.93
2019-03-15T05:08:35.191Z,76.72
2019-03-15T05:09:35.220Z,76.51
2019-03-15T05:10:35.212Z,76.72
2019-03-15T05:11:35.158Z,77.23
2019-03-15T05:12:35.147Z,76.93
2019-03-15T05:13:35.139Z,78.06
2019-03-15T05:14:35.131Z,77.61
2019-03-15T05:15:35.115Z,77.00
2019-03-15T05:16:35.147Z,77.30
2019-03-15T05:17:35.095Z,77.65
2019-03-15T05:18:35.082Z,77.55
2019-03-15T05:19:35.076Z,78.67
2019-03-15T05:20:35.059Z,78.20
2019-03-15T05:21:35.049Z,78.81
2019-03-15T05:22:35.082Z,78.81
2019-03-15T05:23:35.043Z,78.50
2019-03-15T05:24:35.018Z,79.19
2019-03-15T05:25:35.006Z,79.02
2019-03-15T05:26:35.003Z,78.57
2019-03-15T05:27:35.028Z,78.78
2019-03-15T05:28:34.976Z,78.40
2019-03-15T05:29:34.966Z,78.36
2019-03-15T05:30:34.958Z,79.02
2019-03-15T05:31:34.943Z,79.43
2019-03-15T05:32:34.931Z,80.60
2019-03-15T05:33:35.072Z,81.21
2019-03-15T05:34:34.909Z,81.11
2019-03-15T05:35:34.902Z,81.32
2019-03-15T05:36:34.937Z,81.11
2019-03-15T05:37:34.882Z,81.73
2019-03-15T05:38:35.337Z,80.87
2019-03-15T05:39:34.861Z,80.87
2019-03-15T05:40:34.841Z,81.52
2019-03-15T05:41:34.880Z,81.11
2019-03-15T05:42:34.820Z,81.52
2019-03-15T05:43:34.813Z,82.14
2019-03-15T05:44:34.856Z,82.24
2019-03-15T05:45:34.798Z,82.34
2019-03-15T05:46:34.780Z,82.48
2019-03-15T05:47:34.769Z,82.39
2019-03-15T05:48:34.754Z,83.00
2019-03-15T05:49:34.745Z,83.20
2019-03-15T05:50:34.776Z,83.11
2019-03-15T05:51:34.762Z,82.79
2019-03-15T05:52:34.712Z,83.11
2019-03-15T05:53:34.701Z,83.00
2019-03-15T05:54:34.690Z,82.79
2019-03-15T05:55:34.692Z,83.31
2019-03-15T05:56:34.672Z,82.59
2019-03-15T05:57:34.700Z,82.69
2019-03-15T05:58:34.646Z,82.55
2019-03-15T05:59:34.656Z,82.65
2019-03-15T06:00:34.667Z,82.48
2019-03-15T06:01:34.657Z,82.86
2019-03-15T06:02:42.275Z,83.00
2019-03-15T06:03:47.481Z,83.11
2019-03-15T06:04:35.651Z,83.92
2019-03-15T06:05:34.578Z,84.64
2019-03-15T06:06:34.694Z,84.75
2019-03-15T06:07:34.571Z,84.34
2019-03-15T06:08:34.594Z,84.17
2019-03-15T06:09:34.546Z,84.79
2019-03-15T06:10:34.534Z,84.79
2019-03-15T06:11:34.512Z,85.10
2019-03-15T06:12:34.509Z,85.71
2019-03-15T06:13:34.509Z,86.02
2019-03-15T06:14:34.522Z,85.92
2019-03-15T06:15:34.479Z,85.92
2019-03-15T06:16:34.460Z,85.51
2019-03-15T06:17:34.474Z,85.92
2019-03-15T06:18:34.444Z,85.51
2019-03-15T06:19:34.477Z,85.41
2019-03-15T06:20:34.451Z,85.82
2019-03-15T06:21:34.421Z,85.51
2019-03-15T06:22:34.418Z,85.82
2019-03-15T06:23:34.390Z,85.82
2019-03-15T06:24:34.415Z,86.43
2019-03-15T06:25:34.398Z,86.13
2019-03-15T06:26:34.360Z,85.71
2019-03-15T06:27:34.384Z,85.82
2019-03-15T06:28:34.353Z,85.57
2019-03-15T06:29:34.360Z,85.71
2019-03-15T06:30:34.305Z,85.78
2019-03-15T06:31:34.305Z,85.78
2019-03-15T06:32:34.310Z,85.88
2019-03-15T06:33:34.293Z,85.88
2019-03-15T06:34:34.304Z,85.68
2019-03-15T06:35:34.253Z,85.57
2019-03-15T06:36:34.263Z,85.47
2019-03-15T06:37:34.306Z,85.74
2019-03-15T06:38:34.230Z,85.63
2019-03-15T06:39:34.218Z,85.53
2019-03-15T06:40:34.218Z,85.74
2019-03-15T06:41:34.225Z,85.74
2019-03-15T06:42:34.187Z,85.28
2019-03-15T06:43:34.174Z,84.67
2019-03-15T06:44:37.256Z,85.08
2019-03-15T06:45:34.189Z,85.53
2019-03-15T06:46:34.142Z,85.28
2019-03-15T06:47:34.140Z,85.12
2019-03-15T06:48:34.105Z,85.84
2019-03-15T06:49:34.128Z,85.84
2019-03-15T06:50:34.086Z,85.43
2019-03-15T06:51:34.121Z,85.63
2019-03-15T06:52:34.111Z,85.84
2019-03-15T06:53:34.080Z,86.87
2019-03-15T06:54:34.047Z,86.35
2019-03-15T06:55:34.037Z,86.32
2019-03-15T06:56:34.027Z,86.21
2019-03-15T06:57:34.070Z,85.90
2019-03-15T06:58:34.031Z,85.60
2019-03-15T06:59:33.995Z,86.52
2019-03-15T07:00:34.019Z,86.46
2019-03-15T07:01:34.008Z,86.46
2019-03-15T07:02:34.071Z,86.46
2019-03-15T07:03:33.959Z,87.07
2019-03-15T07:04:33.984Z,87.13
2019-03-15T07:05:33.990Z,87.18
2019-03-15T07:06:33.922Z,86.87
2019-03-15T07:07:34.012Z,86.56
2019-03-15T07:08:34.009Z,87.07
2019-03-15T07:09:33.897Z,86.66
2019-03-15T07:10:33.913Z,87.38
2019-03-15T07:11:33.915Z,87.38
2019-03-15T07:12:33.854Z,87.49
2019-03-15T07:13:33.880Z,87.18
2019-03-15T07:14:33.837Z,87.18
2019-03-15T07:15:33.822Z,87.28
2019-03-15T07:16:33.847Z,86.97
2019-03-15T07:17:33.795Z,86.21
2019-03-15T07:18:33.834Z,86.21
2019-03-15T07:19:33.855Z,86.32
2019-03-15T07:20:33.769Z,86.21
2019-03-15T07:21:36.653Z,85.55
2019-03-15T07:22:33.741Z,85.25
2019-03-15T07:23:33.782Z,85.39
2019-03-15T07:24:33.718Z,85.39
2019-03-15T07:25:33.701Z,85.46
2019-03-15T07:26:33.707Z,86.48
2019-03-15T07:27:33.682Z,85.76
2019-03-15T07:28:33.717Z,85.66
2019-03-15T07:29:33.675Z,85.35
2019-03-15T07:30:33.687Z,85.60
2019-03-15T07:31:33.637Z,85.70
2019-03-15T07:32:33.630Z,86.52
2019-03-15T07:33:33.642Z,85.90
2019-03-15T07:34:33.676Z,86.42
2019-03-15T07:35:33.734Z,86.32
2019-03-15T07:36:37.019Z,85.66
2019-03-15T07:37:33.625Z,85.55
2019-03-15T07:38:33.582Z,85.55
2019-03-15T07:39:33.558Z,85.62
2019-03-15T07:40:33.547Z,85.00
2019-03-15T07:41:33.532Z,85.04
2019-03-15T07:42:33.562Z,85.14
2019-03-15T07:43:33.577Z,85.25
2019-03-15T07:44:33.550Z,85.04
2019-03-15T07:45:33.486Z,84.39
2019-03-15T07:46:33.505Z,84.04
2019-03-15T07:47:34.473Z,84.04
2019-03-15T07:48:33.462Z,83.63
2019-03-15T07:49:33.445Z,83.73
2019-03-15T07:50:33.452Z,83.63
2019-03-15T07:51:33.471Z,83.12
2019-03-15T07:52:33.404Z,82.67
2019-03-15T07:53:35.359Z,82.46
2019-03-15T07:54:38.060Z,81.85
2019-03-15T07:55:34.383Z,81.95
2019-03-15T07:56:33.440Z,82.46
2019-03-15T07:57:33.395Z,82.32
2019-03-15T07:58:33.681Z,82.77
2019-03-15T07:59:33.329Z,82.97
2019-03-15T08:00:33.326Z,83.25
2019-03-15T08:01:33.317Z,82.73
2019-03-15T08:02:33.347Z,83.04
2019-03-15T08:03:33.341Z,83.65
2019-03-15T08:04:35.879Z,83.96
2019-03-15T08:05:33.313Z,84.06
2019-03-15T08:06:35.064Z,82.83
2019-03-15T08:07:36.589Z,83.04
2019-03-15T08:08:34.368Z,82.83
2019-03-15T08:09:33.596Z,83.55
2019-03-15T08:10:33.259Z,82.63
2019-03-15T08:11:33.196Z,83.61
2019-03-15T08:12:33.193Z,83.00
2019-03-15T08:13:33.303Z,82.63
2019-03-15T08:14:33.213Z,82.22
2019-03-15T08:15:33.152Z,82.93
2019-03-15T08:16:34.553Z,82.39
2019-03-15T08:17:33.201Z,82.59
2019-03-15T08:18:33.142Z,82.90
2019-03-15T08:19:33.121Z,82.79
2019-03-15T08:20:33.104Z,81.77
2019-03-15T08:21:33.098Z,82.18
2019-03-15T08:22:33.082Z,81.43
2019-03-15T08:23:33.136Z,82.14
2019-03-15T08:24:35.383Z,82.35
2019-03-15T08:25:33.052Z,82.35
2019-03-15T08:26:33.038Z,81.84
2019-03-15T08:27:33.061Z,81.73
2019-03-15T08:28:33.020Z,82.76
2019-03-15T08:29:33.069Z,82.45
2019-03-15T08:30:33.005Z,82.45
2019-03-15T08:31:33.086Z,81.90
2019-03-15T08:32:32.961Z,82.21
2019-03-15T08:33:33.045Z,81.49
2019-03-15T08:34:32.984Z,81.45
2019-03-15T08:35:33.108Z,81.38
2019-03-15T08:36:33.016Z,82.41
2019-03-15T08:37:32.921Z,82.31
2019-03-15T08:38:46.200Z,82.82
2019-03-15T08:39:33.886Z,81.59
2019-03-15T08:40:32.918Z,81.15
2019-03-15T08:41:32.919Z,81.65
2019-03-15T08:42:34.577Z,81.15
2019-03-15T08:43:33.434Z,82.03
2019-03-15T08:44:32.884Z,81.01
2019-03-15T08:45:32.819Z,81.31
2019-03-15T08:46:32.812Z,81.72
2019-03-15T08:47:32.797Z,81.72
2019-03-15T08:48:32.901Z,81.82
2019-03-15T08:49:32.781Z,81.48
2019-03-15T08:50:32.821Z,81.51
2019-03-15T08:51:32.751Z,81.99
2019-03-15T08:52:32.734Z,81.48
2019-03-15T08:53:32.760Z,81.79
2019-03-15T08:54:32.783Z,81.58
2019-03-15T08:55:32.754Z,80.87
2019-03-15T08:56:32.785Z,80.76
2019-03-15T08:57:32.690Z,80.97
2019-03-15T08:58:32.765Z,81.65
2019-03-15T08:59:32.720Z,81.74
2019-03-15T09:00:32.698Z,81.54
2019-03-15T09:01:32.665Z,81.03
2019-03-15T09:02:32.661Z,80.62
2019-03-15T09:03:34.369Z,81.95
2019-03-15T09:04:32.648Z,81.74
2019-03-15T09:05:32.606Z,81.54
2019-03-15T09:06:32.625Z,80.93
2019-03-15T09:07:32.575Z,80.73
2019-03-15T09:08:32.601Z,81.65
2019-03-15T09:09:35.843Z,80.83
2019-03-15T09:10:32.633Z,80.52
2019-03-15T09:11:32.540Z,81.71
2019-03-15T09:12:32.607Z,81.24
2019-03-15T09:13:32.508Z,81.85
2019-03-15T09:14:32.492Z,82.05
2019-03-15T09:15:32.516Z,81.44
2019-03-15T09:16:32.486Z,81.95
2019-03-15T09:17:32.461Z,81.74
2019-03-15T09:18:32.494Z,82.36
2019-03-15T09:19:32.502Z,82.15
2019-03-15T09:20:32.437Z,82.05
2019-03-15T09:21:32.471Z,81.30
2019-03-15T09:22:32.410Z,82.42
2019-03-15T09:23:32.476Z,81.91
2019-03-15T09:24:32.397Z,81.60
2019-03-15T09:25:32.409Z,82.53
2019-03-15T09:26:32.365Z,81.81
2019-03-15T09:27:32.382Z,81.98
2019-03-15T09:28:32.433Z,81.77
2019-03-15T09:29:32.338Z,82.32
2019-03-15T09:30:32.363Z,82.22
2019-03-15T09:31:46.617Z,83.14
2019-03-15T09:32:33.303Z,83.10
2019-03-15T09:33:32.389Z,82.79
2019-03-15T09:34:32.329Z,82.69
2019-03-15T09:35:32.281Z,82.39
2019-03-15T09:36:33.964Z,82.18
2019-03-15T09:37:32.273Z,82.35
2019-03-15T09:38:32.285Z,82.45
2019-03-15T09:39:32.262Z,82.49
2019-03-15T09:40:32.211Z,82.28
2019-03-15T09:41:39.474Z,83.30
2019-03-15T09:42:33.178Z,83.37
2019-03-15T09:43:32.188Z,82.89
2019-03-15T09:44:32.157Z,83.81
2019-03-15T09:45:32.200Z,84.42
2019-03-15T09:46:32.196Z,83.92
2019-03-15T09:47:32.135Z,83.57
2019-03-15T09:48:32.115Z,83.98
2019-03-15T09:49:32.107Z,83.71
2019-03-15T09:50:40.117Z,84.39
2019-03-15T09:51:33.142Z,84.08
2019-03-15T09:52:32.116Z,83.57
2019-03-15T09:53:32.062Z,83.67
2019-03-15T09:54:32.052Z,83.53
2019-03-15T09:55:33.491Z,83.57
2019-03-15T09:56:32.027Z,82.51
2019-03-15T09:57:32.014Z,83.12
2019-03-15T09:58:32.047Z,84.34
2019-03-15T09:59:31.991Z,83.63
2019-03-15T10:00:31.978Z,82.47
2019-03-15T10:01:35.132Z,82.07
2019-03-15T10:02:31.968Z,81.56
2019-03-15T10:03:31.939Z,83.59
2019-03-15T10:04:32.010Z,82.27
2019-03-15T10:05:31.917Z,82.37
2019-03-15T10:06:31.996Z,82.78
2019-03-15T10:07:38.431Z,81.86
2019-03-15T10:08:32.894Z,83.15
2019-03-15T10:09:44.888Z,83.04
2019-03-15T10:10:32.884Z,81.93
2019-03-15T10:11:31.873Z,80.87
2019-03-15T10:12:31.903Z,81.72
2019-03-15T10:13:31.838Z,82.64
2019-03-15T10:14:31.826Z,82.64
2019-03-15T10:15:31.910Z,82.03
2019-03-15T10:16:31.817Z,82.40
2019-03-15T10:17:31.828Z,82.19
2019-03-15T10:18:31.849Z,81.68
2019-03-15T10:19:31.766Z,82.13
2019-03-15T10:20:31.811Z,81.62
2019-03-15T10:21:31.756Z,82.70
2019-03-15T10:22:31.742Z,82.09
2019-03-15T10:23:31.724Z,82.09
2019-03-15T10:24:31.709Z,82.70
2019-03-15T10:25:45.631Z,82.29
2019-03-15T10:26:32.755Z,82.29
2019-03-15T10:27:31.712Z,81.99
2019-03-15T10:28:31.673Z,82.70
2019-03-15T10:29:31.726Z,82.40
2019-03-15T10:30:31.717Z,81.79
2019-03-15T10:31:31.636Z,82.40
2019-03-15T10:32:31.652Z,83.11
2019-03-15T10:33:31.620Z,82.29
2019-03-15T10:34:31.609Z,81.79
2019-03-15T10:35:31.615Z,82.19
2019-03-15T10:36:34.480Z,82.29
2019-03-15T10:37:31.563Z,83.21
2019-03-15T10:38:31.611Z,82.09
2019-03-15T10:39:31.558Z,84.03
2019-03-15T10:40:31.550Z,84.03
2019-03-15T10:41:31.544Z,83.92
2019-03-15T10:42:31.634Z,84.64
2019-03-15T10:43:31.516Z,84.12
2019-03-15T10:44:31.501Z,84.53
2019-03-15T10:45:31.488Z,84.64
2019-03-15T10:46:31.476Z,84.03
2019-03-15T10:47:31.496Z,84.12
2019-03-15T10:48:31.515Z,84.53
2019-03-15T10:49:31.469Z,85.55
2019-03-15T10:50:31.442Z,84.84
2019-03-15T10:51:31.424Z,84.74
2019-03-15T10:52:31.413Z,83.82
2019-03-15T10:53:31.445Z,83.82
2019-03-15T10:54:31.467Z,83.42
2019-03-15T10:55:31.380Z,83.72
2019-03-15T10:56:31.357Z,83.62
2019-03-15T10:57:31.345Z,82.40
2019-03-15T10:58:31.334Z,83.62
2019-03-15T10:59:31.360Z,83.82
2019-03-15T11:00:31.375Z,83.92
2019-03-15T11:01:31.366Z,83.92
2019-03-15T11:02:31.292Z,83.01
2019-03-15T11:03:31.306Z,82.56
2019-03-15T11:04:31.297Z,82.60
2019-03-15T11:05:31.293Z,82.97
2019-03-15T11:06:31.260Z,83.58
2019-03-15T11:07:31.282Z,84.19
2019-03-15T11:08:31.294Z,82.76
2019-03-15T11:09:31.216Z,83.89
2019-03-15T11:10:31.208Z,83.89
2019-03-15T11:11:31.201Z,83.44
2019-03-15T11:12:31.191Z,82.46
2019-03-15T11:13:31.216Z,82.05
2019-03-15T11:14:31.176Z,81.95
2019-03-15T11:15:31.173Z,82.12
2019-03-15T11:16:31.206Z,81.71
2019-03-15T11:17:31.118Z,82.07
2019-03-15T11:18:31.134Z,81.06
2019-03-15T11:19:31.157Z,81.16
2019-03-15T11:20:31.108Z,80.18
2019-03-15T11:21:31.091Z,81.71
2019-03-15T11:22:31.128Z,80.69
2019-03-15T11:23:31.216Z,80.76
2019-03-15T11:24:31.089Z,80.24
2019-03-15T11:25:31.083Z,80.55
2019-03-15T11:26:31.021Z,79.74
2019-03-15T11:27:31.025Z,81.26
2019-03-15T11:28:31.014Z,81.16
2019-03-15T11:29:30.988Z,80.15
2019-03-15T11:30:31.035Z,79.74
2019-03-15T11:31:30.989Z,79.13
2019-03-15T11:32:30.969Z,79.70
2019-03-15T11:33:30.975Z,79.84
2019-03-15T11:34:30.965Z,80.04
2019-03-15T11:35:31.440Z,80.11
2019-03-15T11:36:30.974Z,79.60
2019-03-15T11:37:30.931Z,78.48
2019-03-15T11:38:31.034Z,80.31
2019-03-15T11:39:30.882Z,78.95
2019-03-15T11:40:30.860Z,78.44
2019-03-15T11:41:30.934Z,78.24
2019-03-15T11:42:30.870Z,77.73
2019-03-15T11:43:30.905Z,78.14
2019-03-15T11:44:30.899Z,77.94
2019-03-15T11:45:30.827Z,77.87
2019-03-15T11:46:30.802Z,77.56
2019-03-15T11:47:45.997Z,78.55
2019-03-15T11:48:31.796Z,77.87
2019-03-15T11:49:30.837Z,77.67
2019-03-15T11:50:30.753Z,77.63
2019-03-15T11:51:30.787Z,76.86
2019-03-15T11:52:30.730Z,76.65
2019-03-15T11:53:30.781Z,76.61
2019-03-15T11:54:30.770Z,76.82
2019-03-15T11:55:30.696Z,77.67
2019-03-15T11:56:30.707Z,78.78
2019-03-15T11:57:30.711Z,78.48
2019-03-15T11:58:30.688Z,79.70
2019-03-15T11:59:30.671Z,80.15
2019-03-15T12:00:30.698Z,79.84
2019-03-15T12:01:30.649Z,79.80
2019-03-15T12:02:30.636Z,78.78
2019-03-15T12:03:30.612Z,78.89
2019-03-15T12:04:30.603Z,78.58
2019-03-15T12:05:30.588Z,78.48
2019-03-15T12:06:30.621Z,78.38
2019-03-15T12:07:30.577Z,79.09
2019-03-15T12:08:30.580Z,77.63
2019-03-15T12:09:30.562Z,77.73
2019-03-15T12:10:30.583Z,77.16
2019-03-15T12:11:30.550Z,77.63
2019-03-15T12:12:30.602Z,77.06
2019-03-15T12:13:30.510Z,77.33
2019-03-15T12:14:40.450Z,77.56
2019-03-15T12:15:31.495Z,77.43
2019-03-15T12:16:30.539Z,76.51
2019-03-15T12:17:30.459Z,76.61
2019-03-15T12:18:30.465Z,77.33
2019-03-15T12:19:30.442Z,76.51
2019-03-15T12:20:30.441Z,76.82
2019-03-15T12:21:30.432Z,76.41
2019-03-15T12:22:30.465Z,77.33
2019-03-15T12:23:30.398Z,78.68
2019-03-15T12:24:30.391Z,78.78
2019-03-15T12:25:31.501Z,79.05
2019-03-15T12:26:39.775Z,78.95
2019-03-15T12:27:31.431Z,78.38
2019-03-15T12:28:30.349Z,78.89
2019-03-15T12:29:30.332Z,78.89
2019-03-15T12:30:30.318Z,77.60
2019-03-15T12:31:30.305Z,78.41
2019-03-15T12:32:30.350Z,77.56
2019-03-15T12:33:30.476Z,78.01
2019-03-15T12:34:30.266Z,78.08
2019-03-15T12:35:30.253Z,77.56
2019-03-15T12:36:30.275Z,78.48
2019-03-15T12:37:30.313Z,77.56
2019-03-15T12:38:30.230Z,77.16
2019-03-15T12:39:30.225Z,78.78
2019-03-15T12:40:30.206Z,77.81
2019-03-15T12:41:30.267Z,77.77
2019-03-15T12:42:30.206Z,78.31
2019-03-15T12:43:30.384Z,79.63
2019-03-15T12:44:30.238Z,80.04
2019-03-15T12:45:30.352Z,80.24
2019-03-15T12:46:30.160Z,80.24
2019-03-15T12:47:30.153Z,78.72
2019-03-15T12:48:30.199Z,79.33
2019-03-15T12:49:30.110Z,79.63
2019-03-15T12:50:30.478Z,78.72
2019-03-15T12:51:32.375Z,78.21
2019-03-15T12:52:30.139Z,78.41